Aeroporto :
LOGIN :

Iscrizione | Disclaimer

   EN    FR    IT 

 










Sommario :    VFR   VFR Marginale   IFR   IFR Intensivo   IFR Molto Intensivo
Visibilità : 
Base nubi : 
>= 8 km
>= 3000ft
5 / 8 km
1000 / 3000 ft
1500m / 5 km
500 / 1000 ft
800 / 1500m
200 / 500 ft
< 800m
< 200 ft
Simboli :   Temporali  Nebbia  Neve Forte  Precipitazioni Forti  Vento > 20 kt
SIGMETs :   Varie  Temporali  Ghiacco  Turbolenza  Onda orograficha  Ceneri Vulcaniche






- Altitudine del aeroporto : 913 ft


LFSX - Luxeuil

ULTIMO METAR :
  • 172200Z AUTO 17004KT 130V200 9999 SCT017 BKN028 OVC040 14/13 Q1014

METARs OBSOLETI :
  • 172130Z AUTO VRB02KT 9999 SCT014 SCT024 BKN029 14/13 Q1015
  • 172100Z AUTO VRB02KT 9999 -RADZ BKN016 OVC041 14/13 Q1015
  • 172030Z AUTO 19005KT 9999 SCT018 BKN025 BKN030 14/13 Q1015
  • 172000Z AUTO 19005KT 160V230 9999 ////// 14/13 Q1015
  • 171930Z AUTO 20004KT 170V230 9999 ////// 14/13 Q1015

TAF TAF LFSX
Valido dal 17 a 21 ore il 18 a 21 ore UTC


172000Z 1721/1821 20007KT 9999 BKN030
TEMPO 1721/1812 4000 -SHRA SCT010



MetMap, La meteo Aeronautica in un colpo d'occhio ! - Copyright ORBIFLY Dicembre 2007 - Disclaimer

ORBIFLY MET'MAP TEAM :

Programmazione e sviluppo : Alexandra Zaïnal
Concezione e sviluppo : Baudouin d'Aumeries
Co-Programmazione e sviluppo : Marc-Olivier Méhu
Supporto tecnico e logistico : Manuel Goepfert
Aiuto per la traduzione : Arnaldo La Scala

Contatto : metmap@orbifly.com




FONTI E CREDITI :

   NOAA